This is the latest recevied weather packets stored in our database for station/object TG6YMD-19. If no packets are shown the sender has not sent any weather packets the latest 1 day(s).
| Time | Temp. | Humidity | Pressure | Rain* | Wind** | Luminosity | Snow |
|---|---|---|---|---|---|---|---|
| 1778114816 | 33.33° C | 40% | 1010 hPa | 0 mm | - | - | - |
| 1778114215 | 33.33° C | 40% | 1010 hPa | 0 mm | - | - | - |
| 1778113014 | 33.33° C | 40% | 1008 hPa | 0 mm | - | - | - |
| 1778111813 | 35.56° C | 36% | 1008 hPa | 0 mm | - | - | - |
| 1778110011 | 35.56° C | 36% | 1007 hPa | 0 mm | - | - | - |
| 1778108810 | 37.22° C | 30% | 1007 hPa | 0 mm | - | - | - |
| 1778107008 | 37.78° C | 30% | 1007 hPa | 0 mm | - | - | - |
| 1778105206 | 37.78° C | 30% | 1006 hPa | 0 mm | - | - | - |
| 1778104005 | 39.44° C | 25% | 1006 hPa | 0 mm | - | - | - |
| 1778099430 | 39.44° C | 25% | 1006 hPa | 0 mm | - | - | - |
| 1778098820 | 37.78° C | 27% | 1007 hPa | 0 mm | - | - | - |
| 1778094616 | 36.67° C | 34% | 1009 hPa | 0 mm | - | - | - |
| 1778093415 | 36.67° C | 34% | 1009 hPa | 0 mm | - | - | - |
| 1778091012 | 36.67° C | 34% | 1010 hPa | 0 mm | - | - | - |
| 1778085560 | 32.78° C | 49% | 1013 hPa | 0 mm | - | - | - |
| 1778083774 | 30.56° C | 55% | 1013 hPa | 0 mm | - | - | - |
| 1778082573 | 30.56° C | 55% | 1013 hPa | 0 mm | - | - | - |
| 1778081972 | 30.56° C | 55% | 1013 hPa | 0 mm | - | - | - |
| 1778080771 | 30.56° C | 55% | 1014 hPa | 0 mm | - | - | - |
| 1778080170 | 28.33° C | 74% | 1014 hPa | 0 mm | - | - | - |
| 1778078969 | 28.33° C | 74% | 1014 hPa | 0 mm | - | - | - |
| 1778077768 | 28.33° C | 74% | 1014 hPa | 0 mm | - | - | - |
| 1778076567 | 26.67° C | 78% | 1014 hPa | 0 mm | - | - | - |
| 1778074764 | 26.67° C | 78% | 1014 hPa | 0 mm | - | - | - |
| 1778073562 | 26.67° C | 78% | 1014 hPa | 0 mm | - | - | - |
* Rain latest hour (hover to see other rain measurements)
** Current wind speed in m/s (hover to see current wind gust speed)